Time;durP1;ratioP1;P1;durP2;ratioP2;P2;SDS_P1;SDS_P2;PMS_P1;PMS_P2;Temp;Humidity;BMP_temperature;BMP_pressure;BME280_temperature;BME280_humidity;BME280_pressure;Samples;Min_cycle;Max_cycle;Signal;HPM_P1;HPM_P2
2022/02/02 00:02:10;;;;;;;;;;;;;;;-144.99;94.72;52625.44;5048281;28;19947;-60
2022/02/02 00:04:44;;;;;;;;;;;;;;;-144.99;94.49;52578.53;5048338;28;19931;-58
2022/02/02 00:07:24;;;;;;;;;;;;;;;-144.99;93.43;52582.63;5048308;28;19944;-60
2022/02/02 00:09:55;;;;;;;;;;;;;;;-144.99;93.16;52603.00;5048022;28;19952;-62
2022/02/02 00:12:35;;;;;;;;;;;;;;;-144.99;91.74;52603.00;5048209;28;20308;-60
2022/02/02 00:15:26;;;;;;;;;;;;;;;-144.99;91.00;52631.53;5047626;28;19925;-60
2022/02/02 00:18:05;;;;;;;;;;;;;;;-144.99;91.96;52594.84;5048598;28;20392;-60
2022/02/02 00:20:38;;;;;;;;;;;;;;;-144.99;91.40;52586.69;5034025;28;20001;-59
2022/02/02 00:23:13;;;;;;;;;;;;;;;-144.99;91.90;52590.78;5047966;28;20335;-61
2022/02/02 00:25:48;;;;;;;;;;;;;;;-144.99;91.85;52582.63;5047954;28;19976;-61
2022/02/02 00:28:19;;;;;;;;;;;;;;;-144.99;93.82;52607.09;5048432;28;20062;-61
2022/02/02 00:30:45;;;;;;;;;;;;;;;-144.99;94.07;52615.25;5047891;28;20270;-60
2022/02/02 00:33:20;;;;;;;;;;;;;;;-144.99;93.85;52582.63;5048384;28;19946;-60
2022/02/02 00:35:57;;;;;;;;;;;;;;;-144.99;95.88;52578.53;5047905;28;19924;-60
2022/02/02 00:38:23;;;;;;;;;;;;;;;-144.99;96.31;52594.84;5042219;28;19991;-61
2022/02/02 00:40:50;;;;;;;;;;;;;;;-144.99;96.69;52566.31;5047757;28;20293;-60
2022/02/02 00:43:16;;;;;;;;;;;;;;;-144.99;98.42;52615.25;5047534;28;19979;-60
2022/02/02 00:45:45;;;;;;;;;;;;;;;-144.99;97.16;52570.38;5048080;28;20373;-59
2022/02/02 00:48:15;;;;;;;;;;;;;;;-144.99;95.70;52615.25;5048134;28;20234;-60
2022/02/02 00:50:41;;;;;;;;;;;;;;;-144.99;94.92;52598.94;5047660;28;19925;-60
2022/02/02 00:53:10;;;;;;;;;;;;;;;-144.99;93.44;52586.69;5047691;28;19924;-59
2022/02/02 00:55:36;;;;;;;;;;;;;;;-144.99;92.33;52615.25;5047427;28;19975;-60
2022/02/02 00:58:03;;;;;;;;;;;;;;;-144.99;92.29;52607.09;5047844;28;20009;-59
2022/02/02 01:00:30;;;;;;;;;;;;;;;-144.99;93.73;52623.38;5047399;28;19968;-59
2022/02/02 01:02:57;;;;;;;;;;;;;;;-144.99;93.49;52582.63;5047823;28;20349;-59
2022/02/02 01:05:24;;;;;;;;;;;;;;;-144.99;93.61;52605.03;5047276;28;19925;-60
2022/02/02 01:10:40;;;;;;;;;;;;;;;-144.99;95.87;52594.84;5047489;28;19935;-61
2022/02/02 01:13:25;;;;;;;;;;;;;;;-144.99;96.23;52643.78;5047379;28;20011;-60
2022/02/02 01:19:00;;;;;;;;;;;;;;;-144.99;94.06;52603.00;4985012;28;20364;-59
2022/02/02 01:21:44;;;;;;;;;;;;;;;-144.99;92.79;52619.31;5037509;28;19925;-59
2022/02/02 01:29:38;;;;;;;;;;;;;;;-144.99;93.93;52639.69;5046724;28;19952;-59
2022/02/02 01:32:05;;;;;;;;;;;;;;;-144.99;92.85;52603.00;5047298;28;20096;-59
2022/02/02 01:34:32;;;;;;;;;;;;;;;-144.99;91.85;52623.38;5046792;28;20263;-59
2022/02/02 01:36:59;;;;;;;;;;;;;;;-144.99;90.72;52594.84;5047022;28;20033;-59
2022/02/02 01:39:28;;;;;;;;;;;;;;;-144.99;89.93;52639.69;5051246;28;20009;-58
2022/02/02 01:41:55;;;;;;;;;;;;;;;-144.99;89.41;52607.09;5051430;28;20040;-59
2022/02/02 01:44:24;;;;;;;;;;;;;;;-144.99;89.32;52627.47;5051340;28;19925;-59
2022/02/02 01:46:52;;;;;;;;;;;;;;;-144.99;90.54;52615.25;5050626;28;20402;-59
2022/02/02 01:52:25;;;;;;;;;;;;;;;-144.99;89.30;52584.66;5050455;28;19987;-58
2022/02/02 01:54:57;;;;;;;;;;;;;;;-144.99;90.12;52582.63;5051305;28;19932;-59
2022/02/02 01:57:46;;;;;;;;;;;;;;;-144.99;91.10;52623.38;5050608;28;19991;-61
2022/02/02 02:00:14;;;;;;;;;;;;;;;-144.99;90.20;52623.38;5050910;28;19931;-59
2022/02/02 02:02:40;;;;;;;;;;;;;;;-144.99;89.76;52590.78;5050928;28;20020;-61
2022/02/02 02:05:07;;;;;;;;;;;;;;;-144.99;89.62;52643.78;5049767;28;20356;-60
2022/02/02 02:07:35;;;;;;;;;;;;;;;-144.99;89.08;52603.00;5050172;28;20186;-58
2022/02/02 02:10:01;;;;;;;;;;;;;;;-144.99;88.25;52596.88;5050091;28;20309;-60
2022/02/02 02:12:30;;;;;;;;;;;;;;;-144.99;87.58;52590.78;5050707;28;19972;-59
2022/02/02 02:15:01;;;;;;;;;;;;;;;-144.99;86.63;52615.25;5050379;28;19935;-59
2022/02/02 02:17:28;;;;;;;;;;;;;;;-144.99;86.45;52629.50;5050626;28;20284;-61
2022/02/02 02:19:54;;;;;;;;;;;;;;;-144.99;86.10;52570.38;5049846;28;20043;-63
2022/02/02 02:22:24;;;;;;;;;;;;;;;-144.99;85.90;52590.78;5049906;28;20377;-60
2022/02/02 02:24:52;;;;;;;;;;;;;;;-144.99;85.35;52643.78;5049798;28;19998;-60
2022/02/02 02:27:21;;;;;;;;;;;;;;;-144.99;85.05;52603.00;5050209;28;19944;-60
2022/02/02 02:29:57;;;;;;;;;;;;;;;-144.99;84.87;52598.94;5050248;28;19962;-61
2022/02/02 02:35:33;;;;;;;;;;;;;;;-144.99;84.94;52619.31;5049486;28;20066;-59
2022/02/02 02:38:27;;;;;;;;;;;;;;;-144.99;84.59;52605.03;5043941;28;19972;-59
2022/02/02 02:57:25;;;;;;;;;;;;;;;-144.99;84.87;52619.31;5050155;28;20097;-58
2022/02/02 03:00:16;;;;;;;;;;;;;;;-144.99;84.41;52609.13;5050112;28;20027;-59
2022/02/02 03:14:41;;;;;;;;;;;;;;;-144.99;82.80;52619.31;5048015;28;19931;-58
2022/02/02 03:30:45;;;;;;;;;;;;;;;-144.99;85.53;52627.47;5069435;22;19931;-60
2022/02/02 03:49:52;;;;;;;;;;;;;;;-144.99;87.21;52611.16;5038841;28;20448;-59
2022/02/02 03:53:11;;;;;;;;;;;;;;;-144.99;87.22;52578.53;5044490;28;19925;-59
2022/02/02 03:55:39;;;;;;;;;;;;;;;-144.99;87.24;52611.16;5030067;28;20099;-58
2022/02/02 04:01:13;;;;;;;;;;;;;;;-144.99;86.74;52594.84;5031934;28;19937;-58
2022/02/02 04:03:55;;;;;;;;;;;;;;;-144.99;88.07;52615.25;5049723;28;20016;-59
2022/02/02 04:06:24;;;;;;;;;;;;;;;-144.99;87.18;52615.25;5049684;28;19924;-59
2022/02/02 04:08:50;;;;;;;;;;;;;;;-144.99;87.99;52607.09;5049585;28;19932;-58
2022/02/02 04:11:27;;;;;;;;;;;;;;;-144.99;88.26;52619.31;5039540;28;19955;-58
2022/02/02 04:52:41;;;;;;;;;;;;;;;-144.99;93.57;52627.47;5029950;28;19948;-59
2022/02/02 04:55:19;;;;;;;;;;;;;;;-144.99;93.80;52627.47;5029888;28;19943;-59
2022/02/02 04:58:02;;;;;;;;;;;;;;;-144.99;94.88;52603.00;5037832;28;19925;-59
2022/02/02 05:01:08;;;;;;;;;;;;;;;-144.99;94.99;52603.00;5050761;28;19992;-59
2022/02/02 05:06:22;;;;;;;;;;;;;;;-144.99;95.66;52578.53;5050328;28;20397;-59
2022/02/02 05:08:56;;;;;;;;;;;;;;;-144.99;96.27;52576.50;5050933;28;19925;-58
2022/02/02 05:11:41;;;;;;;;;;;;;;;-144.99;95.88;52611.16;5045024;28;19936;-58
2022/02/02 05:17:09;;;;;;;;;;;;;;;-144.99;96.24;52635.63;5034760;28;19925;-60
2022/02/02 05:44:56;;;;;;;;;;;;;;;-144.99;92.55;52619.31;5093898;28;19950;-59
2022/02/02 05:50:29;;;;;;;;;;;;;;;-144.99;92.42;52643.78;5086515;28;20005;-59
2022/02/02 05:52:56;;;;;;;;;;;;;;;-144.99;91.68;52615.25;5074454;28;19925;-57
2022/02/02 05:55:23;;;;;;;;;;;;;;;-144.99;91.99;52647.84;5086485;28;19924;-59
2022/02/02 05:57:50;;;;;;;;;;;;;;;-144.99;91.83;52639.69;5087169;28;19981;-59
2022/02/02 06:00:18;;;;;;;;;;;;;;;-144.99;90.96;52643.78;5086865;28;20027;-59
2022/02/02 06:02:46;;;;;;;;;;;;;;;-144.99;90.53;52656.00;5086817;28;20358;-59
2022/02/02 06:05:13;;;;;;;;;;;;;;;-144.99;90.18;52643.78;5086122;28;20300;-59
2022/02/02 06:07:43;;;;;;;;;;;;;;;-144.99;89.96;52596.88;5081510;28;19924;-58
2022/02/02 06:10:14;;;;;;;;;;;;;;;-144.99;89.93;52598.94;5083496;28;20017;-58
2022/02/02 06:12:41;;;;;;;;;;;;;;;-144.99;89.93;52611.16;5087468;28;19929;-59
2022/02/02 06:15:11;;;;;;;;;;;;;;;-144.99;89.97;52615.25;5086339;28;19924;-58
2022/02/02 06:17:47;;;;;;;;;;;;;;;-144.99;90.23;52621.34;5086649;28;20019;-59
2022/02/02 06:20:14;;;;;;;;;;;;;;;-144.99;90.16;52598.94;5086198;28;19968;-58
2022/02/02 06:22:42;;;;;;;;;;;;;;;-144.99;90.30;52603.00;5076077;28;19932;-59
2022/02/02 06:25:16;;;;;;;;;;;;;;;-144.99;89.92;52635.63;5102717;28;19931;-60
2022/02/02 06:27:43;;;;;;;;;;;;;;;-144.99;90.43;52611.16;5123111;28;20007;-60
2022/02/02 06:30:10;;;;;;;;;;;;;;;-144.99;89.65;52603.00;5127521;28;20353;-61
2022/02/02 06:32:37;;;;;;;;;;;;;;;-144.99;90.20;52615.25;5127702;28;19939;-58
2022/02/02 06:35:06;;;;;;;;;;;;;;;-144.99;89.20;52611.16;5126064;28;20380;-59
2022/02/02 06:37:33;;;;;;;;;;;;;;;-144.99;88.41;52639.69;5106718;28;20396;-58
2022/02/02 06:39:59;;;;;;;;;;;;;;;-144.99;88.95;52656.00;5092536;28;19928;-59
2022/02/02 06:42:25;;;;;;;;;;;;;;;-144.99;88.93;52627.47;5092932;28;20403;-59
2022/02/02 06:44:53;;;;;;;;;;;;;;;-144.99;89.19;52586.69;5092261;28;19980;-58
2022/02/02 06:47:19;;;;;;;;;;;;;;;-144.99;89.49;52607.09;5092366;28;19935;-60
2022/02/02 06:49:48;;;;;;;;;;;;;;;-144.99;88.86;52621.34;5092327;28;19983;-59
2022/02/02 06:52:21;;;;;;;;;;;;;;;-144.99;89.47;52594.84;5092681;28;20023;-59
2022/02/02 06:54:54;;;;;;;;;;;;;;;-144.99;89.09;52627.47;5092947;28;19928;-59
2022/02/02 06:57:33;;;;;;;;;;;;;;;-144.99;89.70;52635.63;5091112;28;19928;-60
2022/02/02 07:00:09;;;;;;;;;;;;;;;-144.99;90.18;52615.25;5092141;28;20274;-59
2022/02/02 07:02:47;;;;;;;;;;;;;;;-144.99;91.33;52639.69;5092083;28;19958;-59
2022/02/02 07:05:28;;;;;;;;;;;;;;;-144.99;92.31;52590.78;5091529;28;20371;-58
2022/02/02 07:08:12;;;;;;;;;;;;;;;-144.99;92.74;52631.53;5091710;28;20293;-59
2022/02/02 07:13:31;;;;;;;;;;;;;;;-144.99;93.91;52619.31;5091840;28;20335;-58
2022/02/02 07:16:11;;;;;;;;;;;;;;;-144.99;94.03;52603.00;5091994;28;20026;-58
2022/02/02 07:18:49;;;;;;;;;;;;;;;-144.99;94.44;52578.53;5092290;28;20330;-58
2022/02/02 07:21:26;;;;;;;;;;;;;;;-144.99;95.17;52623.38;5091949;28;19927;-59
2022/02/02 07:27:13;;;;;;;;;;;;;;;-144.99;95.64;52607.09;5091877;28;20156;-58
2022/02/02 07:29:48;;;;;;;;;;;;;;;-144.99;95.24;52586.69;5092195;28;19977;-58
2022/02/02 07:32:19;;;;;;;;;;;;;;;-144.99;95.15;52621.34;5092297;28;20384;-60
2022/02/02 07:35:01;;;;;;;;;;;;;;;-144.99;94.06;52603.00;5091161;28;19924;-60
2022/02/02 07:37:31;;;;;;;;;;;;;;;-144.99;93.53;52615.25;5091857;28;20338;-59
2022/02/02 07:40:02;;;;;;;;;;;;;;;-144.99;92.53;52619.31;5091540;28;19930;-62
2022/02/02 07:42:28;;;;;;;;;;;;;;;-144.99;91.51;52639.69;5091808;28;20047;-59
2022/02/02 07:45:00;;;;;;;;;;;;;;;-144.99;89.35;52660.09;5091103;28;19935;-61
2022/02/02 07:47:27;;;;;;;;;;;;;;;-144.99;87.89;52641.72;5091602;28;19961;-60
2022/02/02 07:49:55;;;;;;;;;;;;;;;-144.99;87.04;52619.31;5090121;28;19928;-58
2022/02/02 07:52:22;;;;;;;;;;;;;;;-144.99;85.05;52643.78;5091567;28;19997;-59
2022/02/02 07:54:51;;;;;;;;;;;;;;;-144.99;84.34;52603.00;5091257;28;20014;-59
2022/02/02 07:57:20;;;;;;;;;;;;;;;-144.99;85.03;52598.94;5091582;28;20342;-59
2022/02/02 07:59:54;;;;;;;;;;;;;;;-144.99;83.62;52651.94;5091548;28;20417;-59
2022/02/02 08:02:24;;;;;;;;;;;;;;;-144.99;84.64;52623.38;5091757;28;19935;-59
2022/02/02 08:04:51;;;;;;;;;;;;;;;-144.99;85.69;52598.94;5090896;28;19939;-60
2022/02/02 08:07:23;;;;;;;;;;;;;;;-144.99;86.07;52592.81;5091319;28;20369;-61
2022/02/02 08:10:02;;;;;;;;;;;;;;;-144.99;85.03;52627.47;5088782;28;20337;-61
2022/02/02 08:12:33;;;;;;;;;;;;;;;-144.99;85.53;52637.66;5078643;28;19931;-59
2022/02/02 08:14:59;;;;;;;;;;;;;;;-144.99;85.01;52607.09;5090746;28;19930;-59
2022/02/02 08:17:26;;;;;;;;;;;;;;;-144.99;84.87;52582.63;5091216;28;19931;-59
2022/02/02 08:19:53;;;;;;;;;;;;;;;-144.99;85.22;52611.16;5090629;28;20398;-64
2022/02/02 08:22:19;;;;;;;;;;;;;;;-144.99;85.06;52576.50;5083440;28;20305;-59
2022/02/02 08:24:45;;;;;;;;;;;;;;;-144.99;84.95;52586.69;5085980;28;20401;-58
2022/02/02 08:27:12;;;;;;;;;;;;;;;-144.99;84.70;52598.94;5090758;28;20011;-59
2022/02/02 08:29:39;;;;;;;;;;;;;;;-144.99;84.36;52594.84;5090539;28;19924;-59
2022/02/02 08:32:06;;;;;;;;;;;;;;;-144.99;84.37;52586.69;5090794;28;20376;-59
2022/02/02 08:34:34;;;;;;;;;;;;;;;-144.99;84.65;52621.34;5090194;28;19928;-62
2022/02/02 08:37:01;;;;;;;;;;;;;;;-144.99;82.88;52588.75;5084355;28;19924;-60
2022/02/02 08:39:44;;;;;;;;;;;;;;;-144.99;82.29;52627.47;5090737;28;19934;-59
2022/02/02 08:42:14;;;;;;;;;;;;;;;-144.99;81.27;52570.38;5083088;28;20343;-60
2022/02/02 08:44:47;;;;;;;;;;;;;;;-144.99;80.75;52631.53;5090322;28;19934;-61
2022/02/02 08:47:18;;;;;;;;;;;;;;;-144.99;80.33;52619.31;5089350;28;19928;-61
2022/02/02 08:49:51;;;;;;;;;;;;;;;-144.99;79.54;52603.00;5089969;28;19959;-59
2022/02/02 08:52:17;;;;;;;;;;;;;;;-144.99;79.03;52598.94;5089726;28;20102;-61
2022/02/02 08:54:47;;;;;;;;;;;;;;;-144.99;77.85;52574.47;5089652;28;20385;-59
2022/02/02 08:57:28;;;;;;;;;;;;;;;-144.99;76.59;52594.84;5089727;28;19959;-60
2022/02/02 08:59:59;;;;;;;;;;;;;;;-144.99;76.34;52588.75;5090062;28;19928;-60
2022/02/02 09:02:32;;;;;;;;;;;;;;;-144.99;75.63;52603.00;5090234;28;19931;-61
2022/02/02 09:07:42;;;;;;;;;;;;;;;-144.99;74.10;52590.78;5090233;28;20028;-58
2022/02/02 09:10:15;;;;;;;;;;;;;;;-144.99;74.07;52611.16;5086994;28;19928;-60
2022/02/02 09:23:44;;;;;;;;;;;;;;;-144.99;65.79;52550.00;5081190;28;19955;-60
2022/02/02 09:31:25;;;;;;;;;;;;;;;-144.99;63.94;52550.00;5110847;28;19938;-62
2022/02/02 09:32:17;;;;;;;;;;;;;;;-144.99;61.25;52607.09;5104825;22;19977;-69
2022/02/02 09:34:43;;;;;;;;;;;;;;;-144.99;60.97;52541.84;5050503;28;19955;-70
2022/02/02 09:37:10;;;;;;;;;;;;;;;-144.99;59.82;52531.66;5051040;28;20389;-69
2022/02/02 09:39:42;;;;;;;;;;;;;;;-144.99;58.91;52582.63;5050903;28;19964;-69
2022/02/02 09:42:19;;;;;;;;;;;;;;;-144.99;58.50;52574.47;5051134;28;19986;-70
2022/02/02 09:44:45;;;;;;;;;;;;;;;-144.99;58.11;52541.84;5050992;28;19925;-71
2022/02/02 09:47:22;;;;;;;;;;;;;;;-144.99;56.57;52566.31;5050389;28;20347;-69
2022/02/02 09:49:57;;;;;;;;;;;;;;;-144.99;56.05;52558.16;5049843;28;19933;-71
2022/02/02 09:52:27;;;;;;;;;;;;;;;-144.99;54.68;52490.91;5047598;28;19924;-69
2022/02/02 09:55:03;;;;;;;;;;;;;;;-144.99;53.82;52529.63;5050669;28;19979;-70
2022/02/02 09:57:49;;;;;;;;;;;;;;;-144.99;53.03;52472.56;5050139;28;20344;-70
2022/02/02 10:00:37;;;;;;;;;;;;;;;-144.99;51.83;52513.31;5050111;28;19925;-69
2022/02/02 10:03:33;;;;;;;;;;;;;;;-144.99;50.40;52456.25;5050678;28;19935;-70
2022/02/02 10:06:01;;;;;;;;;;;;;;;-144.99;49.24;52537.78;5050031;28;19929;-70
2022/02/02 10:11:47;;;;;;;;;;;;;;;-144.99;48.65;52550.00;5039428;28;20285;-72
2022/02/02 10:14:31;;;;;;;;;;;;;;;-144.99;48.64;52486.81;5051706;28;20029;-70
2022/02/02 10:16:58;;;;;;;;;;;;;;;-144.99;47.73;52460.31;5053693;28;20018;-70
2022/02/02 10:19:26;;;;;;;;;;;;;;;-144.99;46.94;52501.09;5053964;28;19932;-70
2022/02/02 10:21:55;;;;;;;;;;;;;;;-144.99;45.79;52456.25;5050126;28;19944;-70
2022/02/02 10:24:36;;;;;;;;;;;;;;;-144.99;44.83;52437.91;5053584;28;19932;-70
2022/02/02 10:27:03;;;;;;;;;;;;;;;-144.99;44.41;52419.56;5053266;28;19932;-70
2022/02/02 10:29:37;;;;;;;;;;;;;;;-144.99;44.18;52427.72;5053570;28;20308;-70
2022/02/02 10:32:07;;;;;;;;;;;;;;;-144.99;43.55;52403.25;5053012;28;20278;-70
2022/02/02 10:34:41;;;;;;;;;;;;;;;-144.99;43.74;52399.19;5052757;28;19928;-71
2022/02/02 10:37:15;;;;;;;;;;;;;;;-144.99;42.84;52413.44;5052596;28;20016;-71
2022/02/02 10:39:45;;;;;;;;;;;;;;;-144.99;42.66;52423.63;5052811;28;19979;-68
2022/02/02 10:42:11;;;;;;;;;;;;;;;-144.99;41.70;52415.47;5045207;28;20057;-71
2022/02/02 10:44:42;;;;;;;;;;;;;;;-144.99;41.54;52386.94;5052226;28;19972;-68
2022/02/02 10:47:18;;;;;;;;;;;;;;;-144.99;40.72;52439.94;5052119;28;20020;-69
2022/02/02 10:49:55;;;;;;;;;;;;;;;-144.99;40.50;52399.19;5052247;28;20022;-69
2022/02/02 10:52:35;;;;;;;;;;;;;;;-144.99;40.23;52331.91;5052245;28;19928;-69
2022/02/02 10:55:37;;;;;;;;;;;;;;;-144.99;39.71;52435.88;5052987;28;19925;-70
2022/02/02 10:58:20;;;;;;;;;;;;;;;-144.99;39.87;52350.25;5042645;28;19929;-69
2022/02/02 11:00:54;;;;;;;;;;;;;;;-144.99;40.52;52350.25;5052662;28;20010;-70
2022/02/02 11:08:51;;;;;;;;;;;;;;;-144.99;41.98;52374.72;5042963;28;19932;-69
2022/02/02 11:11:18;;;;;;;;;;;;;;;-144.99;41.82;52525.56;5047674;28;19931;-71
2022/02/02 11:13:46;;;;;;;;;;;;;;;-144.99;42.71;52541.84;5055565;28;19982;-69
2022/02/02 11:16:18;;;;;;;;;;;;;;;-144.99;43.00;52509.25;5057559;28;19924;-70
2022/02/02 11:18:45;;;;;;;;;;;;;;;-144.99;44.22;52423.63;5053618;28;20353;-70
2022/02/02 11:21:15;;;;;;;;;;;;;;;-144.99;44.69;52529.63;5050626;28;19936;-70
2022/02/02 11:23:42;;;;;;;;;;;;;;;-144.99;45.15;52529.63;5051198;28;19982;-70
2022/02/02 11:26:08;;;;;;;;;;;;;;;-144.99;46.57;52560.19;5053596;28;19932;-71
2022/02/02 11:28:36;;;;;;;;;;;;;;;-144.99;48.15;52590.78;5053888;28;19925;-72
2022/02/02 11:31:04;;;;;;;;;;;;;;;-144.99;49.20;52647.84;5053191;28;19928;-70
2022/02/02 11:33:41;;;;;;;;;;;;;;;-144.99;50.79;52582.63;5053289;28;19932;-70
2022/02/02 11:36:20;;;;;;;;;;;;;;;-144.99;51.29;52641.72;5053801;28;19932;-69
2022/02/02 11:38:47;;;;;;;;;;;;;;;-144.99;51.28;52594.84;5053659;28;20026;-69
2022/02/02 11:41:18;;;;;;;;;;;;;;;-144.99;51.93;52596.88;5053648;28;19940;-70
2022/02/02 11:43:51;;;;;;;;;;;;;;;-144.99;52.80;52607.09;5052474;28;19931;-71
2022/02/02 11:46:32;;;;;;;;;;;;;;;-144.99;54.67;52582.63;5052428;28;20003;-70
2022/02/02 11:49:08;;;;;;;;;;;;;;;-144.99;55.74;52452.16;5049490;28;19925;-70
2022/02/02 11:51:39;;;;;;;;;;;;;;;-144.99;54.77;52578.53;5047045;28;20002;-70
2022/02/02 11:54:07;;;;;;;;;;;;;;;-144.99;54.91;52590.78;5052974;28;20296;-69
2022/02/02 11:56:49;;;;;;;;;;;;;;;-144.99;54.23;52578.53;5054388;28;19928;-69
2022/02/02 11:59:34;;;;;;;;;;;;;;;-144.99;52.67;52607.09;5053809;28;19925;-70
2022/02/02 12:02:11;;;;;;;;;;;;;;;-144.99;50.43;52423.63;5052824;28;19925;-69
2022/02/02 12:04:54;;;;;;;;;;;;;;;-144.99;47.64;52362.50;5052420;28;19939;-69
2022/02/02 12:07:51;;;;;;;;;;;;;;;-144.99;45.28;52329.88;5052719;28;19931;-69
2022/02/02 12:10:32;;;;;;;;;;;;;;;-144.99;42.26;52285.03;5039309;28;20316;-70
2022/02/02 12:49:35;;;;;;;;;;;;;;;-144.99;39.79;52321.72;5049630;28;20301;-71
2022/02/02 12:57:39;;;;;;;;;;;;;;;-144.99;41.69;52429.75;5050489;28;19955;-70
2022/02/02 13:00:10;;;;;;;;;;;;;;;-144.99;41.82;52342.09;5049526;28;20371;-70
2022/02/02 13:02:38;;;;;;;;;;;;;;;-144.99;40.13;52333.94;5050107;28;19925;-71
2022/02/02 13:05:05;;;;;;;;;;;;;;;-144.99;39.93;52395.09;5049489;28;20039;-71
2022/02/02 13:07:36;;;;;;;;;;;;;;;-144.99;38.88;52338.03;5049849;28;19931;-70
2022/02/02 13:10:05;;;;;;;;;;;;;;;-144.99;38.26;52370.63;5043767;28;19924;-71
2022/02/02 13:12:35;;;;;;;;;;;;;;;-144.99;38.61;52399.19;5042764;28;19932;-70
2022/02/02 13:17:53;;;;;;;;;;;;;;;-144.99;40.27;52513.31;5050517;28;19932;-70
2022/02/02 13:20:30;;;;;;;;;;;;;;;-144.99;41.22;52476.63;5049786;28;19925;-71
2022/02/02 13:23:02;;;;;;;;;;;;;;;-144.99;41.37;52488.84;5050196;28;20394;-72
2022/02/02 13:25:30;;;;;;;;;;;;;;;-144.99;41.50;52464.41;5050488;28;19924;-70
2022/02/02 13:28:00;;;;;;;;;;;;;;;-144.99;41.64;52415.47;5052360;28;19931;-69
2022/02/02 13:30:40;;;;;;;;;;;;;;;-144.99;41.38;52515.34;5051282;28;19982;-69
2022/02/02 13:33:18;;;;;;;;;;;;;;;-144.99;42.00;52427.72;5051018;28;20326;-70
2022/02/02 13:35:55;;;;;;;;;;;;;;;-144.99;41.33;52478.66;5049745;28;19925;-70
2022/02/02 13:38:48;;;;;;;;;;;;;;;-144.99;42.04;52509.25;5038042;28;19979;-71
2022/02/02 13:44:21;;;;;;;;;;;;;;;-144.99;41.76;52415.47;5050505;28;19978;-70
2022/02/02 13:47:04;;;;;;;;;;;;;;;-144.99;40.69;52419.56;5049501;28;20192;-70
2022/02/02 13:49:50;;;;;;;;;;;;;;;-144.99;39.50;52382.88;5051924;28;20020;-70
2022/02/02 13:52:46;;;;;;;;;;;;;;;-144.99;39.68;52407.31;5049224;28;20027;-70
2022/02/02 13:55:31;;;;;;;;;;;;;;;-144.99;40.01;52439.94;5053913;28;20292;-70
2022/02/02 13:58:28;;;;;;;;;;;;;;;-144.99;39.41;52376.75;5043306;28;19931;-70
2022/02/02 14:01:02;;;;;;;;;;;;;;;-144.99;39.47;52482.75;5054341;28;20019;-71
2022/02/02 14:04:02;;;;;;;;;;;;;;;-144.99;39.91;52415.47;5054569;28;19925;-71
2022/02/02 14:06:45;;;;;;;;;;;;;;;-144.99;40.14;52413.44;5053446;28;19931;-72
2022/02/02 14:09:17;;;;;;;;;;;;;;;-144.99;39.96;52395.09;5036280;28;20597;-70
2022/02/02 14:31:13;;;;;;;;;;;;;;;-144.99;46.33;52631.53;5053886;28;19971;-69
2022/02/02 14:33:41;;;;;;;;;;;;;;;-144.99;47.33;52617.28;5054453;28;19932;-69
2022/02/02 14:36:15;;;;;;;;;;;;;;;-144.99;48.69;52619.31;5053453;28;19929;-69
2022/02/02 14:38:46;;;;;;;;;;;;;;;-144.99;48.53;52525.56;5048165;28;19960;-69
2022/02/02 14:41:20;;;;;;;;;;;;;;;-144.99;46.95;52574.47;5051292;28;19925;-69
2022/02/02 14:43:54;;;;;;;;;;;;;;;-144.99;47.28;52635.63;5053910;28;20436;-69
2022/02/02 14:46:28;;;;;;;;;;;;;;;-144.99;48.05;52668.22;5053861;28;19970;-70
2022/02/02 14:49:02;;;;;;;;;;;;;;;-144.99;48.91;52643.78;5054058;28;19928;-69
2022/02/02 14:51:41;;;;;;;;;;;;;;;-144.99;50.48;52668.22;5053485;28;19963;-70
2022/02/02 14:54:26;;;;;;;;;;;;;;;-144.99;53.94;52651.94;5055791;28;19928;-70
2022/02/02 15:27:28;;;;;;;;;;;;;;;-144.99;68.62;52692.69;5051686;28;19960;-67
2022/02/02 15:29:59;;;;;;;;;;;;;;;-144.99;68.73;52613.19;5054329;28;19961;-70
2022/02/02 15:32:29;;;;;;;;;;;;;;;-144.99;68.45;52676.38;5054242;28;19924;-68
2022/02/02 15:34:58;;;;;;;;;;;;;;;-144.99;68.77;52668.22;5054577;28;19955;-69
2022/02/02 15:37:32;;;;;;;;;;;;;;;-144.99;68.56;52656.00;5053461;28;19954;-68
2022/02/02 15:40:09;;;;;;;;;;;;;;;-144.99;68.65;52631.53;5077022;22;19960;-57
2022/02/02 15:42:54;;;;;;;;;;;;;;;-144.99;69.10;52660.09;5068302;28;19962;-58
2022/02/02 15:59:07;;;;;;;;;;;;;;;-144.99;71.75;52651.94;5090949;28;19961;-57
2022/02/02 16:04:32;;;;;;;;;;;;;;;-144.99;72.62;52639.69;5090630;28;20449;-59
2022/02/02 16:07:02;;;;;;;;;;;;;;;-144.99;73.27;52631.53;5089440;28;20044;-59
2022/02/02 16:09:40;;;;;;;;;;;;;;;-144.99;74.04;52660.09;5070364;28;19974;-58
2022/02/02 16:12:12;;;;;;;;;;;;;;;-144.99;74.07;52668.22;5084760;28;19957;-60
2022/02/02 16:14:43;;;;;;;;;;;;;;;-144.99;75.06;52670.28;5090878;28;20004;-60
2022/02/02 16:36:24;;;;;;;;;;;;;;;-144.99;80.70;52692.69;5069328;28;20000;-58
2022/02/02 16:39:00;;;;;;;;;;;;;;;-144.99;81.14;52668.22;5059654;28;19947;-58
2022/02/02 16:44:12;;;;;;;;;;;;;;;-144.99;81.15;52660.09;5071174;28;20051;-58
2022/02/02 16:46:38;;;;;;;;;;;;;;;-144.99;81.13;52692.69;5070371;28;19948;-57
2022/02/02 16:49:05;;;;;;;;;;;;;;;-144.99;81.58;52660.09;5070397;28;19974;-59
2022/02/02 16:51:31;;;;;;;;;;;;;;;-144.99;81.25;52627.47;5070020;28;19968;-62
2022/02/02 16:54:01;;;;;;;;;;;;;;;-144.99;81.43;52656.00;5070054;28;20456;-60
2022/02/02 16:56:32;;;;;;;;;;;;;;;-144.99;81.35;52664.16;5070201;28;19957;-59
2022/02/02 17:32:16;;;;;;;;;;;;;;;-144.99;86.36;52639.69;5007578;28;19977;-59
2022/02/02 17:34:48;;;;;;;;;;;;;;;-144.99;86.70;52635.63;5007073;28;20419;-59
2022/02/02 17:37:36;;;;;;;;;;;;;;;-144.99;86.90;52680.47;5038856;28;19981;-60
2022/02/02 17:40:07;;;;;;;;;;;;;;;-144.99;87.13;52656.00;5057505;28;20054;-59
2022/02/02 17:42:57;;;;;;;;;;;;;;;-144.99;87.84;52678.44;5069537;28;19990;-58
2022/02/02 17:45:35;;;;;;;;;;;;;;;-144.99;88.03;52664.16;5069677;28;19983;-59
2022/02/02 18:21:12;;;;;;;;;;;;;;;-144.99;91.06;52668.22;5101832;28;20022;-60
2022/02/02 18:23:46;;;;;;;;;;;;;;;-144.99;91.60;52651.94;5079630;28;19991;-58
2022/02/02 18:26:19;;;;;;;;;;;;;;;-144.99;91.25;52660.09;5107833;28;19976;-60
2022/02/02 18:28:52;;;;;;;;;;;;;;;-144.99;91.40;52660.09;5107317;28;19979;-59
2022/02/02 18:31:35;;;;;;;;;;;;;;;-144.99;91.12;52660.09;5107291;28;20023;-59
2022/02/02 18:34:11;;;;;;;;;;;;;;;-144.99;91.80;52647.84;5107563;28;20034;-59
2022/02/02 18:36:46;;;;;;;;;;;;;;;-144.99;92.44;52678.44;5096838;28;20443;-60
2022/02/02 18:45:02;;;;;;;;;;;;;;;-144.99;93.14;52682.50;5086110;28;20026;-59
2022/02/02 18:50:20;;;;;;;;;;;;;;;-144.99;94.17;52635.63;5095502;28;20287;-58
2022/02/02 18:53:40;;;;;;;;;;;;;;;-144.99;94.59;52688.63;5106548;28;20127;-59
2022/02/02 18:56:04;;;;;;;;;;;;;;;-144.99;95.17;52676.38;5106340;28;19965;-59
2022/02/02 18:58:39;;;;;;;;;;;;;;;-144.99;94.61;52607.09;5106802;28;20635;-58
2022/02/02 19:01:19;;;;;;;;;;;;;;;-144.99;94.80;52643.78;5106697;28;19967;-60
2022/02/02 19:04:23;;;;;;;;;;;;;;;-144.99;94.51;52660.09;5118071;28;20343;-62
2022/02/02 19:26:07;;;;;;;;;;;;;;;-144.99;95.71;52684.53;5098727;28;20181;-59
2022/02/02 19:37:26;;;;;;;;;;;;;;;-144.99;95.28;52635.63;5092247;28;20062;-59
2022/02/02 19:40:18;;;;;;;;;;;;;;;-144.99;95.90;52649.88;5092631;28;19972;-60
2022/02/02 19:54:51;;;;;;;;;;;;;;;-144.99;96.37;52684.53;5091880;28;20283;-59
2022/02/02 19:56:52;;;;;;;;;;;;;;;-144.99;96.72;52647.84;5092141;28;19978;-59
2022/02/02 20:07:52;;;;;;;;;;;;;;;-144.99;99.08;52698.81;5094054;28;19966;-59
2022/02/02 20:10:35;;;;;;;;;;;;;;;-144.99;99.55;52627.47;5089011;28;19962;-59
2022/02/02 20:13:02;;;;;;;;;;;;;;;-144.99;99.13;52631.53;5091754;28;19985;-59
2022/02/02 20:15:33;;;;;;;;;;;;;;;-144.99;99.12;52651.94;5091115;28;19961;-57
2022/02/02 20:18:02;;;;;;;;;;;;;;;-144.99;99.71;52668.22;5092171;28;20000;-59
2022/02/02 20:20:28;;;;;;;;;;;;;;;-144.99;99.34;52676.38;5091203;28;19951;-59
2022/02/02 20:23:00;;;;;;;;;;;;;;;-144.99;99.93;52649.88;5079220;28;20202;-59